sensor_id;sensor_type;location;lat;lon;timestamp;pressure;altitude;pressure_sealevel;temperature;humidity
25526;BME280;13424;48.424;11.258;2023-01-31T00:01:38;96195.97;;;3.67;79.47
25526;BME280;13424;48.424;11.258;2023-01-31T00:04:09;96191.31;;;3.69;79.21
25526;BME280;13424;48.424;11.258;2023-01-31T00:07:15;96204.72;;;3.82;78.43
25526;BME280;13424;48.424;11.258;2023-01-31T00:09:41;96205.34;;;3.69;78.66
25526;BME280;13424;48.424;11.258;2023-01-31T00:12:06;96210.63;;;3.84;78.69
25526;BME280;13424;48.424;11.258;2023-01-31T00:14:32;96208.16;;;3.68;78.84
25526;BME280;13424;48.424;11.258;2023-01-31T00:16:58;96194.78;;;3.84;78.28
25526;BME280;13424;48.424;11.258;2023-01-31T00:19:24;96205.00;;;3.72;78.63
25526;BME280;13424;48.424;11.258;2023-01-31T00:21:50;96199.97;;;3.92;78.36
25526;BME280;13424;48.424;11.258;2023-01-31T00:24:17;96205.44;;;3.76;78.90
25526;BME280;13424;48.424;11.258;2023-01-31T00:26:43;96224.34;;;3.94;78.48
25526;BME280;13424;48.424;11.258;2023-01-31T00:29:09;96221.16;;;3.84;78.42
25526;BME280;13424;48.424;11.258;2023-01-31T00:31:35;96215.06;;;4.13;77.83
25526;BME280;13424;48.424;11.258;2023-01-31T00:34:01;96218.63;;;3.76;78.57
25526;BME280;13424;48.424;11.258;2023-01-31T00:36:33;96209.25;;;3.88;78.49
25526;BME280;13424;48.424;11.258;2023-01-31T00:39:01;96216.44;;;3.94;78.10
25526;BME280;13424;48.424;11.258;2023-01-31T00:41:29;96218.81;;;3.89;78.14
25526;BME280;13424;48.424;11.258;2023-01-31T00:43:55;96217.78;;;3.60;78.53
25526;BME280;13424;48.424;11.258;2023-01-31T00:50:28;96204.91;;;3.95;77.52
25526;BME280;13424;48.424;11.258;2023-01-31T00:52:54;96192.44;;;3.74;77.93
25526;BME280;13424;48.424;11.258;2023-01-31T00:55:20;96203.50;;;3.55;78.94
25526;BME280;13424;48.424;11.258;2023-01-31T00:57:45;96206.25;;;3.61;78.58
25526;BME280;13424;48.424;11.258;2023-01-31T01:00:12;96203.06;;;3.81;78.62
25526;BME280;13424;48.424;11.258;2023-01-31T01:02:38;96195.78;;;3.68;77.60
25526;BME280;13424;48.424;11.258;2023-01-31T01:05:04;96212.97;;;3.93;77.24
25526;BME280;13424;48.424;11.258;2023-01-31T01:11:38;96191.13;;;3.85;77.66
25526;BME280;13424;48.424;11.258;2023-01-31T01:14:03;96177.31;;;3.68;77.86
25526;BME280;13424;48.424;11.258;2023-01-31T01:16:35;96195.16;;;3.81;78.23
25526;BME280;13424;48.424;11.258;2023-01-31T01:19:12;96200.72;;;3.56;78.55
25526;BME280;13424;48.424;11.258;2023-01-31T01:21:42;96192.69;;;3.64;78.23
25526;BME280;13424;48.424;11.258;2023-01-31T01:24:17;96195.88;;;3.89;77.74
25526;BME280;13424;48.424;11.258;2023-01-31T01:26:43;96191.88;;;3.64;78.64
25526;BME280;13424;48.424;11.258;2023-01-31T01:29:10;96198.34;;;3.76;78.35
25526;BME280;13424;48.424;11.258;2023-01-31T01:31:38;96198.59;;;3.67;78.33
25526;BME280;13424;48.424;11.258;2023-01-31T01:34:13;96196.50;;;3.47;78.77
25526;BME280;13424;48.424;11.258;2023-01-31T01:36:40;96205.53;;;3.82;77.66
25526;BME280;13424;48.424;11.258;2023-01-31T01:39:09;96208.59;;;3.42;78.60
25526;BME280;13424;48.424;11.258;2023-01-31T01:41:36;96208.25;;;3.89;77.83
25526;BME280;13424;48.424;11.258;2023-01-31T01:47:14;96194.69;;;3.48;78.79
25526;BME280;13424;48.424;11.258;2023-01-31T01:49:41;96203.44;;;3.48;78.48
25526;BME280;13424;48.424;11.258;2023-01-31T01:52:08;96203.25;;;3.64;78.42
25526;BME280;13424;48.424;11.258;2023-01-31T01:54:47;96211.44;;;3.40;78.87
25526;BME280;13424;48.424;11.258;2023-01-31T01:57:16;96219.59;;;3.45;78.95
25526;BME280;13424;48.424;11.258;2023-01-31T01:59:50;96220.53;;;3.52;78.70
25526;BME280;13424;48.424;11.258;2023-01-31T02:02:19;96216.44;;;3.50;78.44
25526;BME280;13424;48.424;11.258;2023-01-31T02:04:46;96216.34;;;3.73;77.79
25526;BME280;13424;48.424;11.258;2023-01-31T02:07:14;96205.78;;;3.58;78.11
25526;BME280;13424;48.424;11.258;2023-01-31T02:10:05;96222.63;;;3.86;76.98
25526;BME280;13424;48.424;11.258;2023-01-31T02:12:33;96221.72;;;3.79;76.71
25526;BME280;13424;48.424;11.258;2023-01-31T02:15:00;96232.09;;;3.81;76.79
25526;BME280;13424;48.424;11.258;2023-01-31T02:17:26;96247.97;;;3.43;78.40
25526;BME280;13424;48.424;11.258;2023-01-31T02:20:26;96260.94;;;3.97;76.50
25526;BME280;13424;48.424;11.258;2023-01-31T02:23:47;96253.28;;;4.02;75.80
25526;BME280;13424;48.424;11.258;2023-01-31T02:32:34;96252.06;;;4.34;75.08
25526;BME280;13424;48.424;11.258;2023-01-31T02:41:58;96277.25;;;4.15;75.94
25526;BME280;13424;48.424;11.258;2023-01-31T02:45:33;96274.16;;;4.12;75.37
25526;BME280;13424;48.424;11.258;2023-01-31T02:50:48;96281.41;;;4.25;75.28
25526;BME280;13424;48.424;11.258;2023-01-31T02:53:35;96283.00;;;4.04;75.58
25526;BME280;13424;48.424;11.258;2023-01-31T02:56:09;96275.69;;;4.06;75.73
25526;BME280;13424;48.424;11.258;2023-01-31T02:59:01;96288.63;;;4.31;74.74
25526;BME280;13424;48.424;11.258;2023-01-31T03:01:39;96286.88;;;4.08;75.23
25526;BME280;13424;48.424;11.258;2023-01-31T03:04:09;96294.38;;;4.19;74.96
25526;BME280;13424;48.424;11.258;2023-01-31T03:09:16;96293.81;;;4.09;75.87
25526;BME280;13424;48.424;11.258;2023-01-31T03:12:15;96295.25;;;3.82;76.37
25526;BME280;13424;48.424;11.258;2023-01-31T03:15:16;96295.19;;;4.35;74.86
25526;BME280;13424;48.424;11.258;2023-01-31T03:18:04;96293.91;;;4.01;75.76
25526;BME280;13424;48.424;11.258;2023-01-31T03:20:41;96301.63;;;4.17;74.86
25526;BME280;13424;48.424;11.258;2023-01-31T03:23:22;96301.09;;;4.07;74.87
25526;BME280;13424;48.424;11.258;2023-01-31T03:25:51;96302.91;;;4.22;74.22
25526;BME280;13424;48.424;11.258;2023-01-31T03:28:21;96307.38;;;4.06;74.88
25526;BME280;13424;48.424;11.258;2023-01-31T03:31:16;96308.63;;;3.81;75.76
25526;BME280;13424;48.424;11.258;2023-01-31T03:33:50;96310.81;;;3.92;75.33
25526;BME280;13424;48.424;11.258;2023-01-31T03:36:42;96312.84;;;4.05;75.14
25526;BME280;13424;48.424;11.258;2023-01-31T03:42:54;96320.50;;;4.14;74.68
25526;BME280;13424;48.424;11.258;2023-01-31T03:47:54;96318.47;;;4.02;75.20
25526;BME280;13424;48.424;11.258;2023-01-31T03:50:35;96327.41;;;4.15;74.75
25526;BME280;13424;48.424;11.258;2023-01-31T03:56:11;96329.50;;;4.05;74.61
25526;BME280;13424;48.424;11.258;2023-01-31T03:58:43;96336.41;;;3.91;75.39
25526;BME280;13424;48.424;11.258;2023-01-31T04:01:12;96333.97;;;4.19;74.79
25526;BME280;13424;48.424;11.258;2023-01-31T04:03:48;96350.97;;;4.17;74.70
25526;BME280;13424;48.424;11.258;2023-01-31T04:06:16;96350.41;;;3.92;75.27
25526;BME280;13424;48.424;11.258;2023-01-31T04:08:44;96356.03;;;4.27;74.92
25526;BME280;13424;48.424;11.258;2023-01-31T04:11:12;96356.16;;;4.10;74.55
25526;BME280;13424;48.424;11.258;2023-01-31T04:13:39;96360.69;;;3.87;75.24
25526;BME280;13424;48.424;11.258;2023-01-31T04:16:05;96365.16;;;4.01;75.13
25526;BME280;13424;48.424;11.258;2023-01-31T04:18:31;96365.25;;;3.93;74.95
25526;BME280;13424;48.424;11.258;2023-01-31T04:20:57;96371.44;;;4.00;74.59
25526;BME280;13424;48.424;11.258;2023-01-31T04:23:22;96371.03;;;4.11;74.46
25526;BME280;13424;48.424;11.258;2023-01-31T04:25:49;96380.69;;;4.19;74.26
25526;BME280;13424;48.424;11.258;2023-01-31T04:28:17;96374.53;;;3.89;75.07
25526;BME280;13424;48.424;11.258;2023-01-31T04:30:42;96375.25;;;3.83;74.79
25526;BME280;13424;48.424;11.258;2023-01-31T04:33:08;96372.91;;;3.88;74.98
25526;BME280;13424;48.424;11.258;2023-01-31T04:35:34;96385.94;;;3.67;75.07
25526;BME280;13424;48.424;11.258;2023-01-31T04:38:00;96388.19;;;3.92;74.70
25526;BME280;13424;48.424;11.258;2023-01-31T04:40:26;96390.94;;;3.99;74.66
25526;BME280;13424;48.424;11.258;2023-01-31T04:42:51;96397.09;;;4.29;73.32
25526;BME280;13424;48.424;11.258;2023-01-31T04:45:17;96402.63;;;3.82;74.62
25526;BME280;13424;48.424;11.258;2023-01-31T04:47:43;96401.50;;;3.99;74.43
25526;BME280;13424;48.424;11.258;2023-01-31T04:50:09;96405.91;;;4.22;73.98
25526;BME280;13424;48.424;11.258;2023-01-31T04:52:35;96395.97;;;4.09;74.11
25526;BME280;13424;48.424;11.258;2023-01-31T04:55:01;96412.47;;;4.11;73.89
25526;BME280;13424;48.424;11.258;2023-01-31T04:57:27;96404.28;;;4.20;73.74
25526;BME280;13424;48.424;11.258;2023-01-31T04:59:53;96394.97;;;3.72;74.79
25526;BME280;13424;48.424;11.258;2023-01-31T05:02:19;96403.53;;;3.74;74.68
25526;BME280;13424;48.424;11.258;2023-01-31T05:04:44;96406.69;;;3.70;75.04
25526;BME280;13424;48.424;11.258;2023-01-31T05:07:11;96410.63;;;3.74;74.67
25526;BME280;13424;48.424;11.258;2023-01-31T05:09:37;96414.19;;;3.81;74.75
25526;BME280;13424;48.424;11.258;2023-01-31T05:12:02;96407.75;;;3.83;75.04
25526;BME280;13424;48.424;11.258;2023-01-31T05:14:38;96404.09;;;3.61;75.00
25526;BME280;13424;48.424;11.258;2023-01-31T05:17:04;96398.75;;;3.70;74.98
25526;BME280;13424;48.424;11.258;2023-01-31T05:19:30;96408.31;;;3.71;74.91
25526;BME280;13424;48.424;11.258;2023-01-31T05:21:56;96417.22;;;3.92;74.53
25526;BME280;13424;48.424;11.258;2023-01-31T05:24:30;96401.41;;;3.70;75.25
25526;BME280;13424;48.424;11.258;2023-01-31T05:26:58;96402.06;;;3.72;75.25
25526;BME280;13424;48.424;11.258;2023-01-31T05:29:32;96402.00;;;3.80;74.59
25526;BME280;13424;48.424;11.258;2023-01-31T05:32:01;96401.19;;;3.56;75.37
25526;BME280;13424;48.424;11.258;2023-01-31T05:34:27;96404.09;;;3.61;74.86
25526;BME280;13424;48.424;11.258;2023-01-31T05:36:57;96411.25;;;3.76;74.96
25526;BME280;13424;48.424;11.258;2023-01-31T05:39:23;96404.28;;;3.83;74.55
25526;BME280;13424;48.424;11.258;2023-01-31T05:41:49;96402.34;;;3.77;74.39
25526;BME280;13424;48.424;11.258;2023-01-31T05:44:15;96402.13;;;3.63;75.07
25526;BME280;13424;48.424;11.258;2023-01-31T05:46:41;96404.03;;;3.70;74.79
25526;BME280;13424;48.424;11.258;2023-01-31T05:49:08;96401.13;;;4.02;73.92
25526;BME280;13424;48.424;11.258;2023-01-31T05:51:34;96402.34;;;3.77;73.96
25526;BME280;13424;48.424;11.258;2023-01-31T05:54:00;96392.63;;;3.54;74.45
25526;BME280;13424;48.424;11.258;2023-01-31T05:56:25;96391.78;;;3.54;75.00
25526;BME280;13424;48.424;11.258;2023-01-31T05:58:51;96396.34;;;3.83;73.94
25526;BME280;13424;48.424;11.258;2023-01-31T06:01:18;96388.56;;;3.67;74.30
25526;BME280;13424;48.424;11.258;2023-01-31T06:03:44;96394.72;;;3.82;74.36
25526;BME280;13424;48.424;11.258;2023-01-31T06:06:10;96385.84;;;3.98;74.14
25526;BME280;13424;48.424;11.258;2023-01-31T06:08:36;96376.81;;;3.92;73.82
25526;BME280;13424;48.424;11.258;2023-01-31T06:11:02;96386.88;;;3.74;73.84
25526;BME280;13424;48.424;11.258;2023-01-31T06:13:32;96379.84;;;3.66;74.17
25526;BME280;13424;48.424;11.258;2023-01-31T06:15:59;96383.75;;;3.47;74.78
25526;BME280;13424;48.424;11.258;2023-01-31T06:18:25;96395.91;;;3.56;74.87
25526;BME280;13424;48.424;11.258;2023-01-31T06:20:51;96392.16;;;3.74;73.92
25526;BME280;13424;48.424;11.258;2023-01-31T06:23:18;96395.91;;;3.56;74.80
25526;BME280;13424;48.424;11.258;2023-01-31T06:25:48;96394.59;;;3.75;74.18
25526;BME280;13424;48.424;11.258;2023-01-31T06:28:15;96399.53;;;3.55;74.46
25526;BME280;13424;48.424;11.258;2023-01-31T06:30:40;96406.94;;;3.60;74.50
25526;BME280;13424;48.424;11.258;2023-01-31T06:33:06;96402.97;;;3.79;73.60
25526;BME280;13424;48.424;11.258;2023-01-31T06:35:32;96413.13;;;3.90;73.74
25526;BME280;13424;48.424;11.258;2023-01-31T06:41:30;96429.53;;;3.54;74.35
25526;BME280;13424;48.424;11.258;2023-01-31T06:43:56;96428.53;;;3.55;74.29
25526;BME280;13424;48.424;11.258;2023-01-31T06:46:22;96436.72;;;3.69;74.31
25526;BME280;13424;48.424;11.258;2023-01-31T06:52:54;96444.50;;;3.85;74.20
25526;BME280;13424;48.424;11.258;2023-01-31T06:55:19;96437.19;;;3.72;74.51
25526;BME280;13424;48.424;11.258;2023-01-31T06:57:49;96429.41;;;3.93;73.61
25526;BME280;13424;48.424;11.258;2023-01-31T07:00:15;96435.50;;;3.94;73.91
25526;BME280;13424;48.424;11.258;2023-01-31T07:02:44;96436.59;;;3.85;73.91
25526;BME280;13424;48.424;11.258;2023-01-31T07:05:10;96439.94;;;4.16;73.26
25526;BME280;13424;48.424;11.258;2023-01-31T07:07:35;96444.75;;;3.98;73.43
25526;BME280;13424;48.424;11.258;2023-01-31T07:10:01;96447.84;;;3.79;74.02
25526;BME280;13424;48.424;11.258;2023-01-31T07:12:27;96446.94;;;3.72;73.73
25526;BME280;13424;48.424;11.258;2023-01-31T07:14:53;96454.28;;;3.53;74.00
25526;BME280;13424;48.424;11.258;2023-01-31T07:21:25;96446.19;;;3.78;73.97
25526;BME280;13424;48.424;11.258;2023-01-31T07:23:52;96438.22;;;3.86;73.33
25526;BME280;13424;48.424;11.258;2023-01-31T07:26:18;96442.81;;;3.92;73.69
25526;BME280;13424;48.424;11.258;2023-01-31T07:32:51;96435.66;;;3.78;73.65
25526;BME280;13424;48.424;11.258;2023-01-31T07:35:18;96440.22;;;3.84;73.85
25526;BME280;13424;48.424;11.258;2023-01-31T07:37:44;96450.75;;;4.07;73.33
25526;BME280;13424;48.424;11.258;2023-01-31T07:40:12;96450.09;;;3.90;73.59
25526;BME280;13424;48.424;11.258;2023-01-31T07:42:38;96447.03;;;3.78;74.10
25526;BME280;13424;48.424;11.258;2023-01-31T07:45:05;96446.19;;;3.78;73.75
25526;BME280;13424;48.424;11.258;2023-01-31T07:47:31;96452.28;;;4.01;73.90
25526;BME280;13424;48.424;11.258;2023-01-31T07:49:59;96445.94;;;4.10;73.02
25526;BME280;13424;48.424;11.258;2023-01-31T07:52:32;96444.56;;;4.37;72.65
25526;BME280;13424;48.424;11.258;2023-01-31T07:54:58;96447.59;;;4.26;73.32
25526;BME280;13424;48.424;11.258;2023-01-31T07:57:24;96448.72;;;4.32;72.44
25526;BME280;13424;48.424;11.258;2023-01-31T07:59:50;96439.94;;;4.16;72.54
25526;BME280;13424;48.424;11.258;2023-01-31T08:02:16;96446.63;;;4.27;73.16
25526;BME280;13424;48.424;11.258;2023-01-31T08:05:01;96447.69;;;4.03;72.83
25526;BME280;13424;48.424;11.258;2023-01-31T08:07:28;96445.50;;;3.84;73.46
25526;BME280;13424;48.424;11.258;2023-01-31T08:09:54;96440.81;;;3.71;73.44
25526;BME280;13424;48.424;11.258;2023-01-31T08:12:22;96453.78;;;4.18;72.57
25526;BME280;13424;48.424;11.258;2023-01-31T08:14:48;96444.44;;;3.93;72.91
25526;BME280;13424;48.424;11.258;2023-01-31T08:17:14;96442.53;;;4.39;72.73
25526;BME280;13424;48.424;11.258;2023-01-31T08:19:39;96446.16;;;4.24;72.05
25526;BME280;13424;48.424;11.258;2023-01-31T08:22:06;96445.22;;;4.16;72.61
25526;BME280;13424;48.424;11.258;2023-01-31T08:24:34;96452.28;;;4.39;72.53
25526;BME280;13424;48.424;11.258;2023-01-31T08:27:00;96443.53;;;4.38;72.04
25526;BME280;13424;48.424;11.258;2023-01-31T08:29:26;96453.22;;;4.08;71.87
25526;BME280;13424;48.424;11.258;2023-01-31T08:32:01;96460.50;;;4.44;71.42
25526;BME280;13424;48.424;11.258;2023-01-31T08:34:27;96458.31;;;4.62;71.82
25526;BME280;13424;48.424;11.258;2023-01-31T08:36:53;96448.59;;;4.78;71.42
25526;BME280;13424;48.424;11.258;2023-01-31T08:40:14;96460.78;;;4.79;70.77
25526;BME280;13424;48.424;11.258;2023-01-31T08:42:40;96458.78;;;4.81;71.12
25526;BME280;13424;48.424;11.258;2023-01-31T08:45:09;96466.81;;;4.72;71.31
25526;BME280;13424;48.424;11.258;2023-01-31T08:47:34;96468.34;;;4.82;71.45
25526;BME280;13424;48.424;11.258;2023-01-31T08:50:01;96454.31;;;4.96;70.97
25526;BME280;13424;48.424;11.258;2023-01-31T08:52:27;96467.91;;;4.93;70.98
25526;BME280;13424;48.424;11.258;2023-01-31T08:54:53;96464.06;;;4.81;70.79
25526;BME280;13424;48.424;11.258;2023-01-31T08:57:19;96466.16;;;4.56;71.10
25526;BME280;13424;48.424;11.258;2023-01-31T08:59:45;96466.34;;;4.54;70.83
25526;BME280;13424;48.424;11.258;2023-01-31T09:02:14;96460.97;;;4.92;70.11
25526;BME280;13424;48.424;11.258;2023-01-31T09:04:40;96464.53;;;4.99;70.92
25526;BME280;13424;48.424;11.258;2023-01-31T09:07:05;96459.53;;;4.74;71.07
25526;BME280;13424;48.424;11.258;2023-01-31T09:09:31;96462.16;;;5.04;70.01
25526;BME280;13424;48.424;11.258;2023-01-31T09:11:57;96462.59;;;5.22;70.88
25526;BME280;13424;48.424;11.258;2023-01-31T09:14:23;96464.66;;;5.27;69.82
25526;BME280;13424;48.424;11.258;2023-01-31T09:16:49;96464.69;;;5.12;70.11
25526;BME280;13424;48.424;11.258;2023-01-31T09:19:17;96462.09;;;5.33;69.21
25526;BME280;13424;48.424;11.258;2023-01-31T09:21:43;96469.16;;;5.26;68.58
25526;BME280;13424;48.424;11.258;2023-01-31T09:24:09;96467.69;;;5.60;68.61
25526;BME280;13424;48.424;11.258;2023-01-31T09:26:34;96474.59;;;5.40;68.35
25526;BME280;13424;48.424;11.258;2023-01-31T09:29:00;96484.34;;;5.54;68.04
25526;BME280;13424;48.424;11.258;2023-01-31T09:31:26;96472.28;;;5.15;68.60
25526;BME280;13424;48.424;11.258;2023-01-31T09:33:52;96477.97;;;5.33;67.98
25526;BME280;13424;48.424;11.258;2023-01-31T09:36:20;96484.41;;;5.10;67.32
25526;BME280;13424;48.424;11.258;2023-01-31T09:38:47;96475.84;;;5.08;67.07
25526;BME280;13424;48.424;11.258;2023-01-31T09:41:57;96461.56;;;5.38;65.91
25526;BME280;13424;48.424;11.258;2023-01-31T09:44:35;96463.34;;;5.16;65.34
25526;BME280;13424;48.424;11.258;2023-01-31T09:47:18;96468.94;;;5.43;64.81
25526;BME280;13424;48.424;11.258;2023-01-31T09:52:35;96462.34;;;5.75;65.15
25526;BME280;13424;48.424;11.258;2023-01-31T09:55:02;96459.31;;;5.56;65.88
25526;BME280;13424;48.424;11.258;2023-01-31T09:57:52;96460.84;;;5.87;65.02
25526;BME280;13424;48.424;11.258;2023-01-31T10:00:28;96462.22;;;5.62;63.63
25526;BME280;13424;48.424;11.258;2023-01-31T10:09:39;96454.84;;;5.93;63.54
25526;BME280;13424;48.424;11.258;2023-01-31T10:12:44;96452.03;;;5.80;63.66
25526;BME280;13424;48.424;11.258;2023-01-31T10:15:37;96448.06;;;5.91;62.69
25526;BME280;13424;48.424;11.258;2023-01-31T10:18:26;96452.22;;;5.78;64.41
25526;BME280;13424;48.424;11.258;2023-01-31T10:21:41;96445.59;;;5.31;64.09
25526;BME280;13424;48.424;11.258;2023-01-31T10:24:28;96444.44;;;5.19;64.64
25526;BME280;13424;48.424;11.258;2023-01-31T10:27:02;96449.88;;;5.32;65.11
25526;BME280;13424;48.424;11.258;2023-01-31T10:29:40;96445.59;;;5.31;64.60
25526;BME280;13424;48.424;11.258;2023-01-31T10:32:39;96439.28;;;5.47;64.48
25526;BME280;13424;48.424;11.258;2023-01-31T10:35:28;96425.34;;;5.81;63.20
25526;BME280;13424;48.424;11.258;2023-01-31T10:38:18;96425.53;;;5.58;64.87
25526;BME280;13424;48.424;11.258;2023-01-31T10:40:52;96415.28;;;5.49;64.43
25526;BME280;13424;48.424;11.258;2023-01-31T10:43:37;96420.06;;;5.81;64.40
25526;BME280;13424;48.424;11.258;2023-01-31T10:46:11;96425.34;;;5.60;64.94
25526;BME280;13424;48.424;11.258;2023-01-31T10:48:38;96411.34;;;5.45;63.76
25526;BME280;13424;48.424;11.258;2023-01-31T10:54:03;96420.28;;;5.22;64.64
25526;BME280;13424;48.424;11.258;2023-01-31T10:56:43;96393.66;;;5.09;64.99
25526;BME280;13424;48.424;11.258;2023-01-31T10:59:36;96391.88;;;5.31;64.03
25526;BME280;13424;48.424;11.258;2023-01-31T11:02:23;96389.56;;;5.07;64.20
25526;BME280;13424;48.424;11.258;2023-01-31T11:04:53;96379.44;;;5.10;64.28
25526;BME280;13424;48.424;11.258;2023-01-31T11:07:20;96379.97;;;5.42;64.51
25526;BME280;13424;48.424;11.258;2023-01-31T11:09:48;96369.81;;;5.67;64.95
25526;BME280;13424;48.424;11.258;2023-01-31T11:12:38;96362.91;;;5.66;64.94
25526;BME280;13424;48.424;11.258;2023-01-31T11:15:16;96368.78;;;5.61;63.39
25526;BME280;13424;48.424;11.258;2023-01-31T11:17:43;96370.00;;;6.08;63.98
25526;BME280;13424;48.424;11.258;2023-01-31T11:20:45;96353.25;;;5.58;63.36
25526;BME280;13424;48.424;11.258;2023-01-31T11:23:14;96351.13;;;5.47;63.86
25526;BME280;13424;48.424;11.258;2023-01-31T11:25:47;96347.72;;;5.53;63.85
25526;BME280;13424;48.424;11.258;2023-01-31T11:28:37;96335.63;;;5.65;63.82
25526;BME280;13424;48.424;11.258;2023-01-31T11:31:18;96332.22;;;5.93;63.71
25526;BME280;13424;48.424;11.258;2023-01-31T11:33:55;96343.28;;;6.03;63.42
25526;BME280;13424;48.424;11.258;2023-01-31T11:36:24;96331.63;;;6.25;63.05
25526;BME280;13424;48.424;11.258;2023-01-31T11:38:52;96329.66;;;6.06;61.78
25526;BME280;13424;48.424;11.258;2023-01-31T11:41:36;96331.09;;;6.08;62.12
25526;BME280;13424;48.424;11.258;2023-01-31T11:44:18;96334.28;;;5.97;63.22
25526;BME280;13424;48.424;11.258;2023-01-31T11:46:56;96323.03;;;6.23;61.32
25526;BME280;13424;48.424;11.258;2023-01-31T11:49:41;96327.38;;;6.72;61.54
25526;BME280;13424;48.424;11.258;2023-01-31T11:52:26;96313.44;;;6.63;61.46
25526;BME280;13424;48.424;11.258;2023-01-31T11:54:56;96312.31;;;6.38;61.64
25526;BME280;13424;48.424;11.258;2023-01-31T11:57:34;96317.59;;;6.72;61.11
25526;BME280;13424;48.424;11.258;2023-01-31T12:00:26;96315.63;;;6.88;60.86
25526;BME280;13424;48.424;11.258;2023-01-31T12:03:07;96319.22;;;6.74;61.03
25526;BME280;13424;48.424;11.258;2023-01-31T12:05:42;96330.72;;;6.94;60.96
25526;BME280;13424;48.424;11.258;2023-01-31T12:08:30;96328.00;;;6.39;61.65
25526;BME280;13424;48.424;11.258;2023-01-31T12:10:58;96315.56;;;6.33;60.99
25526;BME280;13424;48.424;11.258;2023-01-31T12:13:24;96292.16;;;6.43;61.55
25526;BME280;13424;48.424;11.258;2023-01-31T12:15:59;96282.41;;;6.51;61.58
25526;BME280;13424;48.424;11.258;2023-01-31T12:22:15;96275.28;;;6.10;61.78
25526;BME280;13424;48.424;11.258;2023-01-31T12:28:30;96285.44;;;5.78;63.52
25526;BME280;13424;48.424;11.258;2023-01-31T12:31:22;96293.88;;;6.17;62.88
25526;BME280;13424;48.424;11.258;2023-01-31T12:34:25;96284.88;;;5.89;63.51
25526;BME280;13424;48.424;11.258;2023-01-31T12:37:09;96287.59;;;6.24;64.11
25526;BME280;13424;48.424;11.258;2023-01-31T12:40:33;96284.56;;;6.75;63.86
25526;BME280;13424;48.424;11.258;2023-01-31T12:46:50;96279.88;;;6.77;61.20
25526;BME280;13424;48.424;11.258;2023-01-31T12:53:17;96263.13;;;6.77;63.08
25526;BME280;13424;48.424;11.258;2023-01-31T13:04:57;96247.84;;;6.72;63.04
25526;BME280;13424;48.424;11.258;2023-01-31T13:07:41;96225.91;;;6.43;62.02
25526;BME280;13424;48.424;11.258;2023-01-31T13:10:43;96224.13;;;6.51;62.55
25526;BME280;13424;48.424;11.258;2023-01-31T13:16:15;96212.53;;;6.58;62.85
25526;BME280;13424;48.424;11.258;2023-01-31T13:18:44;96207.75;;;6.34;63.03
25526;BME280;13424;48.424;11.258;2023-01-31T13:21:14;96208.19;;;6.44;64.02
25526;BME280;13424;48.424;11.258;2023-01-31T13:23:47;96202.31;;;6.62;63.15
25526;BME280;13424;48.424;11.258;2023-01-31T13:26:28;96189.00;;;6.35;62.89
25526;BME280;13424;48.424;11.258;2023-01-31T13:29:15;96190.22;;;6.33;63.30
25526;BME280;13424;48.424;11.258;2023-01-31T13:32:22;96189.72;;;6.16;63.23
25526;BME280;13424;48.424;11.258;2023-01-31T13:37:59;96197.50;;;6.18;63.55
25526;BME280;13424;48.424;11.258;2023-01-31T13:40:31;96190.81;;;6.28;63.15
25526;BME280;13424;48.424;11.258;2023-01-31T13:43:05;96181.94;;;6.08;63.70
25526;BME280;13424;48.424;11.258;2023-01-31T13:45:44;96184.06;;;6.26;64.73
25526;BME280;13424;48.424;11.258;2023-01-31T13:51:15;96177.13;;;6.18;63.39
25526;BME280;13424;48.424;11.258;2023-01-31T13:54:06;96179.16;;;6.23;64.05
25526;BME280;13424;48.424;11.258;2023-01-31T13:56:38;96185.44;;;6.15;64.16
25526;BME280;13424;48.424;11.258;2023-01-31T13:59:09;96190.50;;;6.03;63.90
25526;BME280;13424;48.424;11.258;2023-01-31T14:01:46;96190.56;;;6.23;64.11
25526;BME280;13424;48.424;11.258;2023-01-31T14:09:35;96169.03;;;6.33;63.43
25526;BME280;13424;48.424;11.258;2023-01-31T14:14:54;96160.63;;;6.29;63.44
25526;BME280;13424;48.424;11.258;2023-01-31T14:22:28;96164.38;;;5.94;63.22
25526;BME280;13424;48.424;11.258;2023-01-31T14:25:40;96176.06;;;6.12;63.42
25526;BME280;13424;48.424;11.258;2023-01-31T14:28:09;96163.72;;;6.33;63.44
25526;BME280;13424;48.424;11.258;2023-01-31T14:30:43;96167.78;;;6.35;63.04
25526;BME280;13424;48.424;11.258;2023-01-31T14:41:49;96167.75;;;5.53;64.41
25526;BME280;13424;48.424;11.258;2023-01-31T14:44:55;96174.88;;;5.52;64.60
25526;BME280;13424;48.424;11.258;2023-01-31T14:53:25;96176.91;;;5.78;64.67
25526;BME280;13424;48.424;11.258;2023-01-31T14:56:13;96180.22;;;5.59;65.59
25526;BME280;13424;48.424;11.258;2023-01-31T14:58:46;96172.00;;;5.82;65.30
25526;BME280;13424;48.424;11.258;2023-01-31T15:01:12;96160.72;;;5.95;64.27
25526;BME280;13424;48.424;11.258;2023-01-31T15:03:51;96146.91;;;6.06;65.11
25526;BME280;13424;48.424;11.258;2023-01-31T15:06:30;96132.75;;;5.85;64.25
25526;BME280;13424;48.424;11.258;2023-01-31T15:09:38;96124.28;;;5.69;64.27
25526;BME280;13424;48.424;11.258;2023-01-31T15:12:04;96122.16;;;5.85;64.68
25526;BME280;13424;48.424;11.258;2023-01-31T15:14:49;96127.13;;;6.02;64.40
25526;BME280;13424;48.424;11.258;2023-01-31T15:17:20;96133.84;;;5.98;64.66
25526;BME280;13424;48.424;11.258;2023-01-31T15:23:53;96135.31;;;5.72;66.84
25526;BME280;13424;48.424;11.258;2023-01-31T15:26:20;96137.72;;;5.67;66.74
25526;BME280;13424;48.424;11.258;2023-01-31T15:29:06;96143.34;;;5.51;66.91
25526;BME280;13424;48.424;11.258;2023-01-31T15:31:42;96141.44;;;5.73;66.55
25526;BME280;13424;48.424;11.258;2023-01-31T15:34:33;96140.53;;;5.59;67.31
25526;BME280;13424;48.424;11.258;2023-01-31T15:37:25;96112.66;;;5.28;67.63
25526;BME280;13424;48.424;11.258;2023-01-31T15:42:32;96138.03;;;5.51;67.46
25526;BME280;13424;48.424;11.258;2023-01-31T15:48:09;96135.50;;;5.36;67.16
25526;BME280;13424;48.424;11.258;2023-01-31T15:50:36;96138.44;;;5.48;67.29